Impacts TAF Board
For situational awareness. Not to be used for flight planning purposes.
IDs:

KAST - Astoria Rgnl, OR, US

Issued at 0520 UTC 22 Oct 2021
Updated at 0721 UTC 22 Oct 2021
Potential Impact None Slight Moderate High
Time0704Z 22/08Z 22/09Z 22/10Z 22/11Z 22/12Z 22/13Z 22/14Z 22/15Z 22/16Z 22/17Z 22/18Z 22/19Z 22/20Z>>
Type OBS PRVL PRVL PRVL PRVL PRVL PRVL PRVL PRVL PRVL PRVL PRVL PRVL PRVL
VIS 9 >6 >6 >6 >6 >6 >6 >6 >6 >6 >6 >6 >6 >6
CIG 36 45 45 45 45 45 45 45 45 45 45 45 45 45
Cover OVC BKN BKN BKN BKN BKN BKN BKN BKN BKN BKN BKN BKN BKN
FltCat VFR VFR VFR VFR VFR VFR VFR VFR VFR VFR VFR VFR VFR VFR
WX -- -SHRA -SHRA -SHRA -SHRA -SHRA -SHRA -SHRA -SHRA -SHRA -SHRA -SHRA -SHRA -SHRA
WDir 120 200 200 200 200 200 200 200 200 200 200 200 200 200
WSpd 6 9 9 9 9 9 9 9 9 9 9 9 9 9
WGst -- -- -- -- -- -- -- -- -- -- -- -- -- --
Raw TAF
KAST 220520Z 2206/2306 13008KT P6SM -RA SCT022 BKN045 OVC070
  FM220800 20009KT P6SM -SHRA SCT020 BKN045 BKN070
  FM222100 19007KT P6SM VCSH SCT035 BKN045 BKN100
  FM230400 12007KT P6SM -RA BKN035 OVC045


Raw METAR
KAST 220704Z AUTO 12006KT 9SM FEW027 BKN036 OVC043 11/10 A2977 RMK AO2 T01110100
KAST 220655Z AUTO 12004KT 8SM BKN029 OVC038 11/10 A2977 RMK AO2 RAB36E49 SLP081 P0000 T01110100
KAST 220640Z AUTO 00000KT 6SM -RA BR BKN027 BKN033 OVC070 11/11 A2977 RMK AO2 RAB36 P0000 T01110106
KAST 220555Z AUTO 12003KT 8SM SCT033 BKN060 11/10 A2976 RMK AO2 SLP078 60012 T01110100 10133 20111 53007
KAST 220455Z AUTO 10004KT 10SM OVC110 12/10 A2976 RMK AO2 RAE18 SLP078 P0000 T01170100

METAR Board
Radar Display
Forecast Discussion
For situational awareness. Not to be used for flight planning purposes.